Time;durP1;ratioP1;P1;durP2;ratioP2;P2;SDS_P1;SDS_P2;PMS_P1;PMS_P2;Temp;Humidity;BMP_temperature;BMP_pressure;BME280_temperature;BME280_humidity;BME280_pressure;Samples;Min_cycle;Max_cycle;Signal;HPM_P1;HPM_P2
2021/11/08 00:02:20;;;;;;;10.03;7.27;;;7.80;99.90;;;;;;5045758;28;20672;-64
2021/11/08 00:04:47;;;;;;;8.67;6.97;;;7.90;99.90;;;;;;5046319;28;20440;-63
2021/11/08 00:07:15;;;;;;;12.93;8.60;;;7.90;99.90;;;;;;5045258;28;20440;-64
2021/11/08 00:09:43;;;;;;;9.97;7.20;;;8.00;99.90;;;;;;5046243;28;20541;-64
2021/11/08 00:12:11;;;;;;;11.07;6.55;;;7.90;99.90;;;;;;5037924;28;20448;-64
2021/11/08 00:14:38;;;;;;;8.40;6.63;;;7.90;99.90;;;;;;5032587;28;20202;-63
2021/11/08 00:17:14;;;;;;;9.33;6.70;;;7.90;99.90;;;;;;5032225;28;20449;-64
2021/11/08 00:19:58;;;;;;;11.10;7.23;;;7.80;99.90;;;;;;5032891;28;20484;-64
2021/11/08 00:22:25;;;;;;;9.67;7.47;;;7.70;99.90;;;;;;5032129;28;20531;-63
2021/11/08 00:24:52;;;;;;;11.30;7.13;;;7.70;99.90;;;;;;5032595;28;20950;-65
2021/11/08 00:27:19;;;;;;;10.97;7.40;;;7.60;99.90;;;;;;5032132;28;20449;-63
2021/11/08 00:29:47;;;;;;;11.40;7.57;;;7.50;99.90;;;;;;5032729;28;20444;-64
2021/11/08 00:32:14;;;;;;;13.90;8.50;;;7.30;99.90;;;;;;5032238;28;20448;-64
2021/11/08 00:34:44;;;;;;;14.40;7.80;;;7.20;99.90;;;;;;5032496;28;21238;-63
2021/11/08 00:37:11;;;;;;;11.03;8.60;;;7.00;99.90;;;;;;5031856;28;20441;-63
2021/11/08 00:39:38;;;;;;;10.67;8.07;;;7.00;99.90;;;;;;5032284;28;20441;-63
2021/11/08 00:42:05;;;;;;;14.10;9.07;;;6.90;99.90;;;;;;5032443;28;21048;-64
2021/11/08 00:44:32;;;;;;;11.97;8.50;;;6.80;99.90;;;;;;5032408;28;20453;-63
2021/11/08 00:46:58;;;;;;;14.33;8.00;;;6.70;99.90;;;;;;5031282;28;20469;-64
2021/11/08 00:49:26;;;;;;;16.63;8.20;;;6.70;99.90;;;;;;5032105;28;20480;-63
2021/11/08 00:51:56;;;;;;;10.90;8.90;;;6.60;99.90;;;;;;5031759;28;20502;-63
2021/11/08 00:54:23;;;;;;;11.53;8.73;;;6.40;99.90;;;;;;5032215;28;20896;-63
2021/11/08 00:56:51;;;;;;;15.43;8.70;;;6.40;99.90;;;;;;5031239;28;20990;-63
2021/11/08 00:59:18;;;;;;;10.37;8.50;;;6.30;99.90;;;;;;5031935;28;20449;-63
2021/11/08 01:01:47;;;;;;;15.17;10.00;;;6.30;99.90;;;;;;5031352;28;21028;-63
2021/11/08 01:04:18;;;;;;;17.93;11.03;;;6.30;99.90;;;;;;5031516;28;20449;-63
2021/11/08 01:06:47;;;;;;;18.43;9.30;;;6.30;99.90;;;;;;5031127;28;20500;-64
2021/11/08 01:09:16;;;;;;;13.15;10.18;;;6.30;99.90;;;;;;5031663;28;20456;-63
2021/11/08 01:11:43;;;;;;;13.00;8.50;;;6.30;99.90;;;;;;5031314;28;20597;-64
2021/11/08 01:14:10;;;;;;;14.50;9.20;;;6.10;99.90;;;;;;5031542;28;20449;-63
2021/11/08 01:16:37;;;;;;;13.00;8.80;;;6.10;99.90;;;;;;5030731;28;20473;-63
2021/11/08 01:19:06;;;;;;;13.97;9.33;;;6.10;99.90;;;;;;5031694;28;20498;-63
2021/11/08 01:21:33;;;;;;;13.90;8.67;;;6.00;99.90;;;;;;5031067;28;20485;-64
2021/11/08 01:24:01;;;;;;;14.90;9.30;;;5.90;99.90;;;;;;5030730;28;20528;-63
2021/11/08 01:26:30;;;;;;;13.17;9.27;;;5.80;99.90;;;;;;5030360;28;20487;-64
2021/11/08 01:28:57;;;;;;;15.00;9.67;;;5.80;99.90;;;;;;5031307;28;20988;-63
2021/11/08 01:31:24;;;;;;;16.87;9.80;;;5.80;99.90;;;;;;5030720;28;20841;-63
2021/11/08 01:33:53;;;;;;;12.00;9.60;;;5.70;99.90;;;;;;5031519;28;20445;-62
2021/11/08 01:36:24;;;;;;;14.73;8.00;;;5.60;99.90;;;;;;5030528;28;20470;-63
2021/11/08 01:38:54;;;;;;;13.63;7.97;;;5.50;99.90;;;;;;5031327;28;20297;-63
2021/11/08 01:41:23;;;;;;;12.03;8.87;;;5.30;99.90;;;;;;5030484;28;20477;-63
2021/11/08 01:43:52;;;;;;;13.40;7.83;;;5.20;99.90;;;;;;5031059;28;20452;-63
2021/11/08 01:46:20;;;;;;;12.33;7.93;;;5.00;99.90;;;;;;5030071;28;20476;-63
2021/11/08 01:48:47;;;;;;;16.90;9.10;;;5.00;99.90;;;;;;5030963;28;20449;-63
2021/11/08 01:51:14;;;;;;;14.43;9.67;;;4.90;99.90;;;;;;5030345;28;20445;-64
2021/11/08 01:53:43;;;;;;;13.10;9.23;;;4.80;99.90;;;;;;5030797;28;20464;-63
2021/11/08 01:56:10;;;;;;;16.53;9.50;;;4.70;99.90;;;;;;5030478;28;20484;-63
2021/11/08 01:58:38;;;;;;;19.23;10.07;;;4.70;99.90;;;;;;5030050;28;20452;-64
2021/11/08 02:01:06;;;;;;;13.70;9.83;;;4.80;99.90;;;;;;5030338;28;20567;-61
2021/11/08 02:03:35;;;;;;;12.77;9.52;;;4.80;99.90;;;;;;5030578;28;20528;-63
2021/11/08 02:06:02;;;;;;;13.23;9.73;;;4.80;99.90;;;;;;5030611;28;20230;-63
2021/11/08 02:08:29;;;;;;;13.17;9.60;;;4.90;99.90;;;;;;5029975;28;20822;-64
2021/11/08 02:10:56;;;;;;;14.20;9.23;;;4.80;99.90;;;;;;5030495;28;20540;-63
2021/11/08 02:13:24;;;;;;;13.73;9.80;;;4.70;99.90;;;;;;5030605;28;20447;-63
2021/11/08 02:15:52;;;;;;;17.90;10.23;;;4.70;99.90;;;;;;5030606;28;20471;-61
2021/11/08 02:18:22;;;;;;;14.77;9.30;;;4.50;99.90;;;;;;5029792;28;20449;-63
2021/11/08 02:20:51;;;;;;;18.40;8.90;;;4.50;99.90;;;;;;5030440;28;20534;-63
2021/11/08 02:23:20;;;;;;;14.70;8.90;;;4.40;99.90;;;;;;5029968;28;20449;-64
2021/11/08 02:25:49;;;;;;;14.30;8.93;;;4.40;99.90;;;;;;5030352;28;20986;-63
2021/11/08 02:28:17;;;;;;;12.27;9.93;;;4.30;99.90;;;;;;5029591;28;20547;-63
2021/11/08 02:30:44;;;;;;;11.77;9.17;;;4.20;99.90;;;;;;5030211;28;20465;-63
2021/11/08 02:33:16;;;;;;;15.50;10.30;;;4.30;99.90;;;;;;5029951;28;20451;-63
2021/11/08 02:35:44;;;;;;;12.93;9.13;;;4.20;99.90;;;;;;5029940;28;20560;-63
2021/11/08 02:38:16;;;;;;;15.17;10.20;;;4.10;99.90;;;;;;5029093;28;20562;-63
2021/11/08 02:40:43;;;;;;;18.33;11.10;;;4.10;99.90;;;;;;5030528;28;20452;-63
2021/11/08 02:43:19;;;;;;;18.77;12.47;;;4.30;99.90;;;;;;5029723;28;20453;-63
2021/11/08 02:45:46;;;;;;;14.80;11.77;;;4.30;99.90;;;;;;5030108;28;20468;-63
2021/11/08 02:48:14;;;;;;;20.00;13.63;;;4.40;99.90;;;;;;5029373;28;20467;-64
2021/11/08 02:50:41;;;;;;;18.00;12.50;;;4.40;99.90;;;;;;5030055;28;20445;-63
2021/11/08 02:53:12;;;;;;;15.43;12.70;;;4.50;99.90;;;;;;5029643;28;20441;-63
2021/11/08 02:55:41;;;;;;;16.52;12.55;;;4.40;99.90;;;;;;5030120;28;20476;-63
2021/11/08 02:58:08;;;;;;;22.03;12.90;;;4.50;99.90;;;;;;5029256;28;20229;-63
2021/11/08 03:00:36;;;;;;;17.70;11.23;;;4.50;99.90;;;;;;5030126;28;20457;-63
2021/11/08 03:03:03;;;;;;;14.90;11.00;;;4.40;99.90;;;;;;5029741;28;20433;-63
2021/11/08 03:05:34;;;;;;;14.50;10.70;;;4.30;99.90;;;;;;5030303;28;20465;-63
2021/11/08 03:08:02;;;;;;;16.42;11.02;;;4.20;99.90;;;;;;5029175;28;20926;-63
2021/11/08 03:10:33;;;;;;;15.80;11.10;;;4.30;99.90;;;;;;5030173;28;20244;-63
2021/11/08 03:13:10;;;;;;;14.37;11.00;;;4.20;99.90;;;;;;5029823;28;20464;-62
2021/11/08 03:15:48;;;;;;;24.50;10.73;;;4.10;99.90;;;;;;5029729;28;20504;-63
2021/11/08 03:18:25;;;;;;;48.57;13.20;;;4.10;99.90;;;;;;5029274;28;20448;-63
2021/11/08 03:20:52;;;;;;;42.17;12.73;;;4.00;99.90;;;;;;5029932;28;21131;-65
2021/11/08 03:23:19;;;;;;;15.47;10.37;;;3.90;99.90;;;;;;5029259;28;20448;-63
2021/11/08 03:25:51;;;;;;;19.33;11.37;;;3.80;99.90;;;;;;5030061;28;20471;-64
2021/11/08 03:28:19;;;;;;;11.97;9.27;;;3.80;99.90;;;;;;5029029;28;20543;-63
2021/11/08 03:30:48;;;;;;;13.37;10.00;;;3.80;99.90;;;;;;5029899;28;20453;-63
2021/11/08 03:33:17;;;;;;;12.53;9.07;;;3.80;99.90;;;;;;5029381;28;21001;-65
2021/11/08 03:35:45;;;;;;;17.07;10.93;;;3.80;99.90;;;;;;5029682;28;20906;-63
2021/11/08 03:38:15;;;;;;;15.83;10.50;;;3.80;99.90;;;;;;5028674;28;20970;-64
2021/11/08 03:40:44;;;;;;;16.43;9.80;;;3.70;99.90;;;;;;5029298;28;20506;-63
2021/11/08 03:43:13;;;;;;;10.50;8.50;;;3.70;99.90;;;;;;5029068;28;21189;-64
2021/11/08 03:45:42;;;;;;;15.27;10.83;;;3.70;99.90;;;;;;5029491;28;20559;-64
2021/11/08 03:48:12;;;;;;;12.70;9.03;;;3.60;99.90;;;;;;5031932;28;20540;-64
2021/11/08 03:50:39;;;;;;;14.73;11.20;;;3.60;99.90;;;;;;5033095;28;20459;-63
2021/11/08 03:53:07;;;;;;;18.80;12.73;;;3.50;99.90;;;;;;5032826;28;20495;-65
2021/11/08 03:55:34;;;;;;;27.10;12.80;;;3.60;99.90;;;;;;5033142;28;20476;-63
2021/11/08 03:58:01;;;;;;;16.50;12.38;;;3.60;99.90;;;;;;5032560;28;20445;-63
2021/11/08 04:00:30;;;;;;;21.07;12.07;;;3.50;99.90;;;;;;5033040;28;20220;-63
2021/11/08 04:03:01;;;;;;;18.73;12.45;;;3.50;99.90;;;;;;5032632;28;20511;-64
2021/11/08 04:05:32;;;;;;;18.37;11.87;;;3.60;99.90;;;;;;5032468;28;20309;-64
2021/11/08 04:08:03;;;;;;;17.58;13.02;;;3.50;99.90;;;;;;5032470;28;20973;-64
2021/11/08 04:10:30;;;;;;;16.53;12.00;;;3.50;99.90;;;;;;5032676;28;20665;-62
2021/11/08 04:13:03;;;;;;;16.27;11.17;;;3.50;99.90;;;;;;5032719;28;20448;-64
2021/11/08 04:15:36;;;;;;;22.13;11.47;;;3.50;99.90;;;;;;5032539;28;20991;-63
2021/11/08 04:18:06;;;;;;;22.10;11.97;;;3.40;99.90;;;;;;5032093;28;20448;-64
2021/11/08 04:20:34;;;;;;;15.90;11.27;;;3.30;99.90;;;;;;5032781;28;21127;-63
2021/11/08 04:23:01;;;;;;;17.33;10.30;;;3.20;99.90;;;;;;5032403;28;21020;-63
2021/11/08 04:25:28;;;;;;;17.83;12.20;;;3.10;99.90;;;;;;5032422;28;20991;-63
2021/11/08 04:27:56;;;;;;;25.53;12.87;;;3.00;99.90;;;;;;5032037;28;20469;-64
2021/11/08 04:30:25;;;;;;;50.13;13.47;;;3.10;99.90;;;;;;5032552;28;20451;-64
2021/11/08 04:33:04;;;;;;;47.38;15.10;;;3.00;99.90;;;;;;5032128;28;20449;-64
2021/11/08 04:35:43;;;;;;;35.77;14.03;;;2.90;99.90;;;;;;5032394;28;20229;-65
2021/11/08 04:38:18;;;;;;;103.70;16.83;;;2.90;99.90;;;;;;5031569;28;20445;-63
2021/11/08 04:40:49;;;;;;;17.10;10.50;;;3.00;99.90;;;;;;5032422;28;20842;-63
2021/11/08 04:43:31;;;;;;;50.40;12.87;;;2.90;99.90;;;;;;5032188;28;20488;-63
2021/11/08 04:46:33;;;;;;;26.00;13.07;;;2.90;99.90;;;;;;5032275;28;20464;-61
2021/11/08 04:49:07;;;;;;;19.60;11.70;;;2.90;99.90;;;;;;5032255;28;21203;-62
2021/11/08 04:51:43;;;;;;;16.30;11.60;;;2.90;99.90;;;;;;5031885;28;20425;-64
2021/11/08 04:54:17;;;;;;;15.32;11.48;;;2.80;99.90;;;;;;5032401;28;20441;-63
2021/11/08 05:24:33;;;;;;;21.13;11.50;;;2.60;99.90;;;;;;5014909;28;20504;-63
2021/11/08 05:30:06;;;;;;;30.03;12.30;;;2.60;99.90;;;;;;5032006;28;20502;-63
2021/11/08 05:32:35;;;;;;;17.30;11.90;;;2.60;99.90;;;;;;5031051;28;20975;-65
2021/11/08 05:35:02;;;;;;;21.47;11.93;;;2.50;99.90;;;;;;5031150;28;20665;-65
2021/11/08 05:37:30;;;;;;;26.10;13.27;;;2.50;99.90;;;;;;5030551;28;20449;-65
2021/11/08 05:40:05;;;;;;;26.93;12.97;;;2.40;99.90;;;;;;5031200;28;20534;-67
2021/11/08 05:42:32;;;;;;;23.08;12.88;;;2.50;99.90;;;;;;5031023;28;20859;-64
2021/11/08 05:44:59;;;;;;;22.30;12.88;;;2.60;99.90;;;;;;5031907;28;20260;-63
2021/11/08 05:47:27;;;;;;;23.90;12.83;;;2.60;99.90;;;;;;5030441;28;20207;-63
2021/11/08 05:49:54;;;;;;;18.60;11.90;;;2.70;99.90;;;;;;5031196;28;20453;-65
2021/11/08 05:52:21;;;;;;;39.72;14.52;;;2.80;99.90;;;;;;5030450;28;20436;-64
2021/11/08 05:54:48;;;;;;;18.03;11.93;;;2.90;99.90;;;;;;5030594;28;20208;-63
2021/11/08 06:49:28;;;;;;;17.23;8.90;;;2.60;99.90;;;;;;5048951;28;20834;-63
2021/11/08 06:51:56;;;;;;;15.32;10.30;;;2.60;99.90;;;;;;5047476;28;20476;-63
2021/11/08 06:54:25;;;;;;;15.60;10.50;;;2.60;99.90;;;;;;5048738;28;20211;-64
2021/11/08 06:56:55;;;;;;;20.00;10.43;;;2.60;99.90;;;;;;5047769;28;20467;-64
2021/11/08 06:59:24;;;;;;;15.43;10.93;;;2.50;99.90;;;;;;5048864;28;20452;-66
2021/11/08 07:01:53;;;;;;;12.40;9.77;;;2.50;99.90;;;;;;5047961;28;20557;-62
2021/11/08 07:04:20;;;;;;;13.23;9.80;;;2.50;99.90;;;;;;5048623;28;20443;-64
2021/11/08 07:06:48;;;;;;;21.13;9.70;;;2.50;99.90;;;;;;5047491;28;20474;-63
2021/11/08 07:09:15;;;;;;;13.97;9.80;;;2.50;99.90;;;;;;5048687;28;20452;-64
2021/11/08 07:11:42;;;;;;;18.65;11.52;;;2.60;99.90;;;;;;5048069;28;20451;-63
2021/11/08 07:14:11;;;;;;;13.45;10.27;;;2.60;99.90;;;;;;5048575;28;20208;-64
2021/11/08 07:16:39;;;;;;;15.23;10.70;;;2.70;99.90;;;;;;5047566;28;20225;-65
2021/11/08 07:19:08;;;;;;;14.67;9.50;;;2.80;99.90;;;;;;5048320;28;20834;-64
2021/11/08 07:21:35;;;;;;;13.60;10.53;;;2.90;99.90;;;;;;5048208;28;20444;-65
2021/11/08 07:24:02;;;;;;;21.33;12.23;;;3.00;99.90;;;;;;5053003;28;20542;-61
2021/11/08 07:26:29;;;;;;;19.30;11.50;;;3.00;99.90;;;;;;5052419;28;20551;-63
2021/11/08 07:28:56;;;;;;;15.43;10.00;;;3.10;99.90;;;;;;5053342;28;20450;-64
2021/11/08 07:31:23;;;;;;;17.70;10.93;;;3.20;99.90;;;;;;5052960;28;20482;-63
2021/11/08 07:33:50;;;;;;;14.87;10.97;;;3.30;99.90;;;;;;5053051;28;20447;-63
2021/11/08 07:36:18;;;;;;;21.17;12.47;;;3.30;99.90;;;;;;5052626;28;20468;-64
2021/11/08 07:38:45;;;;;;;14.33;10.83;;;3.50;99.90;;;;;;5053070;28;20450;-63
2021/11/08 07:41:12;;;;;;;19.70;10.63;;;3.60;99.90;;;;;;5052862;28;20459;-63
2021/11/08 07:43:40;;;;;;;18.70;10.90;;;3.70;99.90;;;;;;5052956;28;20498;-63
2021/11/08 07:46:08;;;;;;;15.20;10.80;;;3.80;99.90;;;;;;5052775;28;20862;-64
2021/11/08 07:48:39;;;;;;;16.97;11.20;;;3.90;99.90;;;;;;5052179;28;20440;-65
2021/11/08 07:51:06;;;;;;;15.98;11.10;;;4.00;99.90;;;;;;5053138;28;20813;-63
2021/11/08 07:53:35;;;;;;;17.53;12.70;;;4.10;99.90;;;;;;5052754;28;20200;-64
2021/11/08 07:56:01;;;;;;;14.70;10.33;;;4.10;99.90;;;;;;5052706;28;20463;-65
2021/11/08 07:58:29;;;;;;;16.73;11.17;;;4.20;99.90;;;;;;5052048;28;20446;-63
2021/11/08 08:00:56;;;;;;;15.63;11.23;;;4.40;99.90;;;;;;5052498;28;20846;-64
2021/11/08 08:03:25;;;;;;;17.37;12.03;;;4.50;99.90;;;;;;5052530;28;20471;-65
2021/11/08 08:05:54;;;;;;;16.13;10.07;;;4.60;99.90;;;;;;5052605;28;20537;-64
2021/11/08 08:08:21;;;;;;;14.27;10.90;;;4.70;99.90;;;;;;5051995;28;20554;-64
2021/11/08 08:10:51;;;;;;;14.50;10.67;;;4.90;99.90;;;;;;5052680;28;20450;-64
2021/11/08 08:13:21;;;;;;;15.87;11.00;;;5.00;99.90;;;;;;5052288;28;20474;-64
2021/11/08 08:15:48;;;;;;;14.47;12.53;;;5.10;99.90;;;;;;5052641;28;20467;-64
2021/11/08 08:18:15;;;;;;;14.30;11.75;;;5.20;99.90;;;;;;5052068;28;20446;-64
2021/11/08 08:20:43;;;;;;;14.30;11.60;;;5.40;99.90;;;;;;5052618;28;20209;-64
2021/11/08 08:23:10;;;;;;;14.00;11.17;;;5.60;99.90;;;;;;5051980;28;20480;-64
2021/11/08 08:25:37;;;;;;;17.02;13.05;;;5.70;99.90;;;;;;5052409;28;20467;-64
2021/11/08 08:28:05;;;;;;;14.50;11.00;;;5.90;99.90;;;;;;5051652;28;20201;-65
2021/11/08 08:30:32;;;;;;;15.07;11.83;;;6.00;99.90;;;;;;5052172;28;20479;-65
2021/11/08 08:32:59;;;;;;;15.33;12.07;;;6.20;99.90;;;;;;5051590;28;20440;-64
2021/11/08 08:35:26;;;;;;;16.40;12.83;;;6.30;99.90;;;;;;5052343;28;20609;-64
2021/11/08 08:37:53;;;;;;;23.30;13.80;;;6.30;99.90;;;;;;5051649;28;20444;-63
2021/11/08 08:40:20;;;;;;;18.60;12.83;;;6.30;99.90;;;;;;5045593;28;20459;-69
2021/11/08 08:42:47;;;;;;;21.33;14.00;;;6.30;99.90;;;;;;5041628;28;20580;-71
2021/11/08 08:45:16;;;;;;;20.87;12.87;;;6.50;99.90;;;;;;5042863;28;20981;-72
2021/11/08 08:47:43;;;;;;;21.03;14.77;;;6.60;99.90;;;;;;5043891;28;20542;-64
2021/11/08 08:50:10;;;;;;;16.80;13.13;;;6.70;99.90;;;;;;5047714;28;20448;-63
2021/11/08 08:52:38;;;;;;;19.27;14.50;;;6.80;99.90;;;;;;5050082;28;20448;-64
2021/11/08 08:55:06;;;;;;;19.97;13.83;;;6.70;99.90;;;;;;5045427;28;20555;-63
2021/11/08 08:57:32;;;;;;;21.63;14.40;;;6.80;99.90;;;;;;5050573;28;20448;-64
2021/11/08 08:59:59;;;;;;;20.43;14.50;;;6.90;99.90;;;;;;5051616;28;20448;-64
2021/11/08 09:02:27;;;;;;;22.00;14.47;;;7.00;99.90;;;;;;5051264;28;20941;-64
2021/11/08 09:04:54;;;;;;;20.43;15.43;;;7.00;99.90;;;;;;5051617;28;20444;-64
2021/11/08 09:07:21;;;;;;;22.87;15.17;;;7.20;99.90;;;;;;5050870;28;21139;-64
2021/11/08 09:09:48;;;;;;;27.37;17.80;;;7.30;99.90;;;;;;5044057;28;20459;-65
2021/11/08 09:12:15;;;;;;;22.00;15.90;;;7.40;99.90;;;;;;5036784;28;20448;-65
2021/11/08 09:14:42;;;;;;;22.73;14.17;;;7.60;99.90;;;;;;5036236;28;20449;-65
2021/11/08 09:17:09;;;;;;;20.30;13.20;;;7.60;99.90;;;;;;5040735;28;20479;-64
2021/11/08 09:19:37;;;;;;;21.17;13.97;;;7.70;99.90;;;;;;5041200;28;20495;-64
2021/11/08 09:22:04;;;;;;;16.40;12.60;;;7.90;99.90;;;;;;5039186;28;20513;-65
2021/11/08 09:24:31;;;;;;;16.77;13.37;;;8.00;99.90;;;;;;5040949;28;21142;-64
2021/11/08 09:26:58;;;;;;;18.60;12.53;;;8.10;99.90;;;;;;5040692;28;20482;-65
2021/11/08 09:29:25;;;;;;;19.07;12.20;;;8.10;99.90;;;;;;5039792;28;20809;-65
2021/11/08 09:31:52;;;;;;;21.60;14.30;;;8.10;99.90;;;;;;5041337;28;20456;-64
2021/11/08 09:34:21;;;;;;;16.40;14.67;;;8.10;99.90;;;;;;5039725;28;20440;-64
2021/11/08 09:36:52;;;;;;;19.53;14.57;;;8.20;99.90;;;;;;5037624;28;20473;-65
2021/11/08 09:39:22;;;;;;;23.23;12.30;;;8.40;99.90;;;;;;5038774;28;20450;-65
2021/11/08 09:41:51;;;;;;;17.90;12.97;;;8.60;99.90;;;;;;5040050;28;20456;-64
2021/11/08 09:44:18;;;;;;;22.15;12.02;;;8.60;99.90;;;;;;5037629;28;20483;-64
2021/11/08 09:46:46;;;;;;;19.80;13.77;;;8.70;99.90;;;;;;5032375;28;20228;-62
2021/11/08 09:49:12;;;;;;;16.27;12.27;;;8.80;99.90;;;;;;5041313;28;20223;-65
2021/11/08 09:51:43;;;;;;;21.55;14.35;;;8.90;99.90;;;;;;5045422;28;20452;-65
2021/11/08 09:54:13;;;;;;;16.23;12.77;;;9.00;99.90;;;;;;5046954;28;20212;-64
2021/11/08 09:56:41;;;;;;;17.73;9.57;;;9.10;99.90;;;;;;5039431;28;20472;-65
2021/11/08 09:59:08;;;;;;;13.70;8.10;;;9.20;99.90;;;;;;5047581;28;20455;-64
2021/11/08 10:01:40;;;;;;;12.50;8.67;;;9.20;99.90;;;;;;5046489;28;21017;-64
2021/11/08 10:04:10;;;;;;;15.25;9.52;;;9.30;99.90;;;;;;5045086;28;21006;-64
2021/11/08 10:06:37;;;;;;;20.55;12.52;;;9.40;99.90;;;;;;5047283;28;20222;-64
2021/11/08 10:09:05;;;;;;;21.20;10.20;;;9.40;99.90;;;;;;5048099;28;20206;-64
2021/11/08 10:11:35;;;;;;;18.00;11.02;;;9.50;99.90;;;;;;5048617;28;20459;-65
2021/11/08 10:14:03;;;;;;;25.83;11.50;;;9.40;99.90;;;;;;5048270;28;20738;-65
2021/11/08 10:16:33;;;;;;;15.50;10.30;;;9.20;99.90;;;;;;5027757;28;20468;-64
2021/11/08 10:19:02;;;;;;;17.43;11.87;;;9.20;99.90;;;;;;5032791;28;20436;-64
2021/11/08 10:21:32;;;;;;;19.27;12.13;;;9.00;99.90;;;;;;5048469;28;20448;-64
2021/11/08 10:24:01;;;;;;;15.00;8.90;;;9.00;99.90;;;;;;5048896;28;20479;-65
2021/11/08 10:26:33;;;;;;;19.67;10.30;;;8.80;99.90;;;;;;5047797;28;20464;-64
2021/11/08 10:29:06;;;;;;;21.00;12.80;;;8.70;99.90;;;;;;5048729;28;20859;-63
2021/11/08 10:31:36;;;;;;;15.10;12.73;;;8.60;99.90;;;;;;5038106;28;20463;-64
2021/11/08 10:34:05;;;;;;;17.17;11.47;;;8.70;99.90;;;;;;5039734;28;20444;-64
2021/11/08 10:36:32;;;;;;;15.55;11.27;;;8.90;99.90;;;;;;5038045;28;20470;-65
2021/11/08 10:39:01;;;;;;;13.90;8.45;;;9.10;99.90;;;;;;5039009;28;20206;-64
2021/11/08 10:41:30;;;;;;;16.67;9.30;;;9.20;99.90;;;;;;5044252;28;20202;-65
2021/11/08 10:44:02;;;;;;;17.60;10.50;;;9.40;99.90;;;;;;5048296;28;20508;-65
2021/11/08 10:46:34;;;;;;;17.10;11.00;;;9.60;99.90;;;;;;5043876;28;20483;-65
2021/11/08 10:49:04;;;;;;;15.53;10.70;;;9.60;99.90;;;;;;5047757;28;21113;-65
2021/11/08 10:51:33;;;;;;;17.40;10.67;;;9.80;99.90;;;;;;5041986;28;20439;-65
2021/11/08 10:54:02;;;;;;;18.07;10.20;;;9.80;99.90;;;;;;5047851;28;20965;-66
2021/11/08 10:56:36;;;;;;;17.93;11.73;;;9.80;99.90;;;;;;5047578;28;21085;-65
2021/11/08 10:59:09;;;;;;;14.80;10.90;;;9.80;99.90;;;;;;5048111;28;20501;-64
2021/11/08 11:01:43;;;;;;;17.67;9.80;;;10.10;99.90;;;;;;5031805;28;20464;-65
2021/11/08 11:04:10;;;;;;;23.43;11.20;;;10.40;99.90;;;;;;5037640;28;20484;-64
2021/11/08 11:06:39;;;;;;;17.03;8.03;;;10.80;99.90;;;;;;5033921;28;20475;-64
2021/11/08 11:09:12;;;;;;;14.73;8.13;;;11.00;99.90;;;;;;5039021;28;20529;-64
2021/11/08 11:11:39;;;;;;;13.30;8.83;;;10.70;99.90;;;;;;5046616;28;20527;-65
2021/11/08 11:14:06;;;;;;;9.53;7.60;;;10.50;99.90;;;;;;5048209;28;21021;-65
2021/11/08 11:16:35;;;;;;;14.30;9.13;;;10.50;99.90;;;;;;5047315;28;20844;-65
2021/11/08 11:19:07;;;;;;;13.77;8.97;;;10.40;99.90;;;;;;5041323;28;21369;-64
2021/11/08 11:21:34;;;;;;;14.50;10.73;;;10.50;99.90;;;;;;5047636;28;20515;-64
2021/11/08 11:24:03;;;;;;;15.50;8.57;;;10.50;99.90;;;;;;5048073;28;20475;-65
2021/11/08 11:26:35;;;;;;;10.32;6.45;;;10.50;99.90;;;;;;5047149;28;20992;-64
2021/11/08 11:29:04;;;;;;;12.53;6.77;;;10.30;99.90;;;;;;5048202;28;20202;-65
2021/11/08 11:31:36;;;;;;;14.88;7.13;;;10.30;99.90;;;;;;5047599;28;20452;-64
2021/11/08 11:34:13;;;;;;;13.07;6.80;;;10.20;99.90;;;;;;5048163;28;20201;-64
2021/11/08 11:36:41;;;;;;;18.60;8.30;;;10.30;99.90;;;;;;5047236;28;20470;-65
2021/11/08 11:39:10;;;;;;;17.53;8.70;;;10.20;99.90;;;;;;5048275;28;20538;-64
2021/11/08 11:41:40;;;;;;;14.87;7.37;;;10.10;99.90;;;;;;5047792;28;20460;-64
2021/11/08 11:44:10;;;;;;;15.47;7.40;;;10.00;99.90;;;;;;5047964;28;20480;-64
2021/11/08 11:46:41;;;;;;;12.70;5.80;;;9.90;99.90;;;;;;5047160;28;20955;-64
2021/11/08 11:49:10;;;;;;;17.83;6.20;;;9.90;99.90;;;;;;5048359;28;20444;-65
2021/11/08 11:51:39;;;;;;;10.20;6.20;;;10.00;99.90;;;;;;5048096;28;20439;-65
2021/11/08 11:54:08;;;;;;;8.13;5.45;;;10.10;99.90;;;;;;5048138;28;20452;-64
2021/11/08 11:56:37;;;;;;;12.40;5.30;;;10.30;99.90;;;;;;5044832;28;20751;-64
2021/11/08 11:59:06;;;;;;;10.03;4.83;;;10.30;99.90;;;;;;5047255;28;20454;-64
2021/11/08 12:01:34;;;;;;;15.20;5.30;;;10.50;99.90;;;;;;5046844;28;20858;-64
2021/11/08 12:04:01;;;;;;;10.70;4.50;;;10.60;99.90;;;;;;5046927;28;20479;-65
2021/11/08 12:06:32;;;;;;;10.93;5.40;;;10.70;99.90;;;;;;5046820;28;20478;-64
2021/11/08 12:09:00;;;;;;;12.77;4.72;;;10.70;99.90;;;;;;5050345;28;20447;-66
2021/11/08 12:11:29;;;;;;;9.30;5.53;;;10.70;99.90;;;;;;5051674;28;20597;-64
2021/11/08 12:13:59;;;;;;;12.87;5.10;;;10.90;99.90;;;;;;5051445;28;20937;-64
2021/11/08 12:16:29;;;;;;;13.37;5.90;;;11.00;99.90;;;;;;5050694;28;20470;-64
2021/11/08 12:18:59;;;;;;;8.73;5.33;;;11.20;99.90;;;;;;5051295;28;21163;-64
2021/11/08 12:21:28;;;;;;;18.20;8.07;;;11.40;99.90;;;;;;5050806;28;20444;-65
2021/11/08 12:23:58;;;;;;;10.13;5.90;;;11.60;99.90;;;;;;5051242;28;20475;-64
2021/11/08 12:26:28;;;;;;;14.40;5.67;;;11.80;99.90;;;;;;5050415;28;20487;-64
2021/11/08 12:29:07;;;;;;;16.23;5.80;;;12.10;99.90;;;;;;5051333;28;20448;-65
2021/11/08 12:31:34;;;;;;;13.70;6.93;;;12.40;99.90;;;;;;5050658;28;20447;-64
2021/11/08 12:34:04;;;;;;;17.80;5.70;;;12.70;99.90;;;;;;5045484;28;20449;-65
2021/11/08 12:36:31;;;;;;;18.40;6.33;;;12.80;99.90;;;;;;5043828;28;20473;-64
2021/11/08 12:39:06;;;;;;;14.57;7.47;;;12.60;99.90;;;;;;5049342;28;20505;-65
2021/11/08 12:41:44;;;;;;;16.23;8.67;;;12.40;99.90;;;;;;5041152;28;20482;-63
2021/11/08 12:44:11;;;;;;;15.50;7.40;;;11.90;99.90;;;;;;5040273;28;20476;-64
2021/11/08 12:46:41;;;;;;;11.53;7.03;;;11.40;99.90;;;;;;5040235;28;20484;-64
2021/11/08 12:49:13;;;;;;;12.63;9.17;;;11.10;99.90;;;;;;5041474;28;20460;-65
2021/11/08 12:51:50;;;;;;;14.30;8.70;;;10.90;99.90;;;;;;5040607;28;20966;-64
2021/11/08 12:54:18;;;;;;;17.67;8.83;;;10.80;99.90;;;;;;5044111;28;20435;-64
2021/11/08 12:56:46;;;;;;;17.60;7.90;;;10.60;99.90;;;;;;5050880;28;20464;-63
2021/11/08 12:59:15;;;;;;;15.10;7.37;;;10.50;99.90;;;;;;5051410;28;20444;-64
2021/11/08 13:01:46;;;;;;;15.17;8.97;;;10.40;99.90;;;;;;5045224;28;21103;-65
2021/11/08 13:04:15;;;;;;;15.00;9.30;;;10.10;99.90;;;;;;5048520;28;21001;-64
2021/11/08 13:06:42;;;;;;;15.70;9.33;;;10.00;99.90;;;;;;5042637;28;20534;-64
2021/11/08 13:09:14;;;;;;;14.60;9.20;;;9.90;99.90;;;;;;5047865;28;20535;-63
2021/11/08 13:11:45;;;;;;;12.00;8.77;;;9.70;99.90;;;;;;5045706;28;20566;-64
2021/11/08 13:14:23;;;;;;;19.40;9.90;;;9.60;99.90;;;;;;5048766;28;21041;-64
2021/11/08 13:16:51;;;;;;;15.23;8.80;;;9.60;99.90;;;;;;5048021;28;20566;-65
2021/11/08 13:19:19;;;;;;;16.00;8.90;;;9.50;99.90;;;;;;5048514;28;20468;-64
2021/11/08 13:21:46;;;;;;;14.23;8.30;;;9.50;99.90;;;;;;5045765;28;20441;-65
2021/11/08 13:24:14;;;;;;;14.73;10.30;;;9.40;99.90;;;;;;5048390;28;21177;-64
2021/11/08 13:26:44;;;;;;;18.17;9.00;;;9.40;99.90;;;;;;5049100;28;20467;-64
2021/11/08 13:29:17;;;;;;;17.60;8.47;;;9.30;99.90;;;;;;5049103;28;20715;-64
2021/11/08 13:31:44;;;;;;;13.53;9.60;;;9.30;99.90;;;;;;5049295;28;20443;-64
2021/11/08 13:34:13;;;;;;;18.23;7.90;;;9.20;99.90;;;;;;5050954;28;20448;-64
2021/11/08 13:36:41;;;;;;;17.37;7.40;;;9.20;99.90;;;;;;5049104;28;20464;-64
2021/11/08 13:39:08;;;;;;;12.30;7.40;;;9.20;99.90;;;;;;5051150;28;20444;-64
2021/11/08 13:41:35;;;;;;;16.13;7.70;;;9.10;99.90;;;;;;5050545;28;20440;-64
2021/11/08 13:44:06;;;;;;;11.87;7.27;;;9.20;99.90;;;;;;5050870;28;20487;-63
2021/11/08 13:46:36;;;;;;;13.80;7.30;;;9.20;99.90;;;;;;5049736;28;20464;-64
2021/11/08 13:49:06;;;;;;;10.93;5.57;;;9.20;99.90;;;;;;5048442;28;20494;-64
2021/11/08 13:51:34;;;;;;;12.80;6.97;;;9.20;99.90;;;;;;5044304;28;20445;-64
2021/11/08 13:54:04;;;;;;;13.57;7.23;;;9.20;99.90;;;;;;5047206;28;20494;-64
2021/11/08 13:56:33;;;;;;;13.43;6.53;;;9.20;99.90;;;;;;5048062;28;20849;-63
2021/11/08 13:59:05;;;;;;;10.60;6.33;;;9.20;99.90;;;;;;5048854;28;20525;-59
2021/11/08 14:01:35;;;;;;;11.67;6.37;;;9.20;99.90;;;;;;5046546;28;20452;-65
2021/11/08 14:04:03;;;;;;;13.00;6.03;;;9.30;99.90;;;;;;5048998;28;20440;-64
2021/11/08 14:06:32;;;;;;;11.27;6.30;;;9.30;99.90;;;;;;5047748;28;20460;-63
2021/11/08 14:09:01;;;;;;;11.40;7.10;;;9.30;99.90;;;;;;5048746;28;20527;-65
2021/11/08 14:11:31;;;;;;;13.45;7.10;;;9.30;99.90;;;;;;5045935;28;20440;-63
2021/11/08 14:14:04;;;;;;;11.20;6.70;;;9.40;99.90;;;;;;5048566;28;20807;-65